Time;durP1;ratioP1;P1;durP2;ratioP2;P2;SDS_P1;SDS_P2;PMS_P1;PMS_P2;Temp;Humidity;BMP_temperature;BMP_pressure;BME280_temperature;BME280_humidity;BME280_pressure;Samples;Min_cycle;Max_cycle;Signal;HPM_P1;HPM_P2
2022/06/26 00:01:32;;;;;;;27.50;19.80;;;;;;;16.77;100.00;-25539.22;5093230;28;20024;-79
2022/06/26 00:03:58;;;;;;;32.00;20.65;;;;;;;16.71;100.00;-25537.47;5076716;28;20040;-78
2022/06/26 00:06:24;;;;;;;29.13;20.23;;;;;;;16.67;100.00;-25536.44;5094032;28;20026;-78
2022/06/26 00:08:50;;;;;;;27.55;18.65;;;;;;;16.62;100.00;-25534.84;5093857;28;20032;-78
2022/06/26 00:11:15;;;;;;;25.35;17.40;;;;;;;16.50;100.00;-25531.66;5093721;28;20024;-77
2022/06/26 00:13:41;;;;;;;22.83;16.23;;;;;;;16.42;100.00;-25529.34;5092991;28;20093;-77
2022/06/26 00:16:06;;;;;;;21.00;16.75;;;;;;;16.39;100.00;-25528.31;5093512;28;20085;-78
2022/06/26 00:18:31;;;;;;;22.05;15.35;;;;;;;16.39;100.00;-25528.31;5110681;28;20488;-78
2022/06/26 00:20:57;;;;;;;20.98;14.80;;;;;;;16.33;100.00;-25526.72;5110475;28;20409;-77
2022/06/26 00:23:26;;;;;;;21.15;15.68;;;;;;;16.22;100.00;-25523.69;5076574;28;20046;-77
2022/06/26 00:25:52;;;;;;;22.70;15.67;;;;;;;16.23;100.00;-25523.81;5093076;28;20024;-78
2022/06/26 00:28:17;;;;;;;20.30;14.65;;;;;;;16.15;100.00;-25521.78;5093722;28;20031;-77
2022/06/26 00:30:43;;;;;;;18.50;13.75;;;;;;;15.99;100.00;-25517.13;5094480;28;20155;-78
2022/06/26 00:33:09;;;;;;;18.30;13.57;;;;;;;15.90;100.00;-25514.66;5092943;28;20023;-78
2022/06/26 00:35:35;;;;;;;17.63;12.45;;;;;;;15.83;100.00;-25512.50;5093347;28;20055;-77
2022/06/26 00:38:00;;;;;;;18.50;12.40;;;;;;;15.75;100.00;-25510.44;5093169;28;20467;-77
2022/06/26 00:40:26;;;;;;;17.95;12.15;;;;;;;15.72;100.00;-25509.56;5110471;28;20518;-78
2022/06/26 00:42:53;;;;;;;19.50;12.68;;;;;;;15.76;100.00;-25510.59;5075799;28;20032;-78
2022/06/26 00:45:19;;;;;;;19.63;12.85;;;;;;;15.76;100.00;-25510.72;5092961;28;20028;-78
2022/06/26 00:47:46;;;;;;;17.75;12.90;;;;;;;15.82;100.00;-25512.19;5075910;28;20035;-78
2022/06/26 00:50:11;;;;;;;21.00;14.07;;;;;;;15.75;100.00;-25510.44;5092733;28;20080;-78
2022/06/26 00:52:39;;;;;;;22.90;13.88;;;;;;;15.77;100.00;-25511.03;5092532;28;20440;-79
2022/06/26 00:55:05;;;;;;;22.05;14.57;;;;;;;15.79;100.00;-25511.63;5092733;28;20028;-78
2022/06/26 00:57:33;;;;;;;22.17;14.43;;;;;;;15.72;100.00;-25509.56;5092520;28;20036;-79
2022/06/26 00:59:58;;;;;;;22.90;15.98;;;;;;;15.66;100.00;-25507.84;5094189;28;20024;-80
2022/06/26 01:02:24;;;;;;;23.13;16.02;;;;;;;15.63;100.00;-25506.97;5092127;28;20034;-79
2022/06/26 01:04:49;;;;;;;24.95;16.83;;;;;;;15.59;100.00;-25505.94;5092238;28;20032;-81
2022/06/26 01:07:15;;;;;;;25.00;17.75;;;;;;;15.64;100.00;-25507.25;5092370;28;20369;-79
2022/06/26 01:09:41;;;;;;;26.10;17.88;;;;;;;15.67;100.00;-25507.97;5093180;28;20418;-78
2022/06/26 01:12:07;;;;;;;25.55;17.30;;;;;;;15.70;100.00;-25509.00;5092867;28;20476;-78
2022/06/26 01:14:33;;;;;;;28.13;18.15;;;;;;;15.68;100.00;-25508.41;5092473;28;20020;-82
2022/06/26 01:16:59;;;;;;;28.38;18.77;;;;;;;15.62;100.00;-25506.66;5092643;28;20115;-79
2022/06/26 01:19:25;;;;;;;26.95;18.38;;;;;;;15.55;100.00;-25504.63;5092055;28;20032;-78
2022/06/26 01:21:51;;;;;;;28.73;18.67;;;;;;;15.45;100.00;-25501.88;5092088;28;20020;-77
2022/06/26 01:24:16;;;;;;;26.48;18.15;;;;;;;15.45;100.00;-25501.88;5092182;28;20051;-78
2022/06/26 01:26:42;;;;;;;29.08;18.77;;;;;;;15.49;100.00;-25503.03;5092181;28;20044;-79
2022/06/26 01:29:07;;;;;;;27.10;18.33;;;;;;;15.49;100.00;-25502.88;5092263;28;20389;-78
2022/06/26 01:31:34;;;;;;;27.60;18.27;;;;;;;15.48;100.00;-25502.75;5091545;28;20024;-80
2022/06/26 01:34:06;;;;;;;31.45;18.70;;;;;;;15.46;100.00;-25502.16;5092043;28;20027;-81
2022/06/26 01:36:32;;;;;;;28.02;18.73;;;;;;;15.48;100.00;-25502.75;5091726;28;20035;-79
2022/06/26 01:38:57;;;;;;;31.83;18.30;;;;;;;15.46;100.00;-25502.16;5092397;28;20024;-78
2022/06/26 01:41:23;;;;;;;27.77;18.15;;;;;;;15.44;100.00;-25501.56;5092673;28;20032;-82
2022/06/26 01:43:52;;;;;;;29.35;18.85;;;;;;;15.49;100.00;-25502.88;5093023;28;20024;-82
2022/06/26 01:46:19;;;;;;;28.08;17.05;;;;;;;15.50;100.00;-25503.31;5093637;28;20662;-79
2022/06/26 01:48:44;;;;;;;27.38;16.85;;;;;;;15.52;100.00;-25503.91;5091363;28;20046;-79
2022/06/26 01:51:10;;;;;;;23.77;16.35;;;;;;;15.43;100.00;-25501.44;5089584;28;20495;-79
2022/06/26 01:53:36;;;;;;;26.35;16.77;;;;;;;15.42;100.00;-25501.13;5091573;28;20043;-79
2022/06/26 01:56:03;;;;;;;26.73;16.38;;;;;;;15.49;100.00;-25502.88;5091912;28;20043;-77
2022/06/26 01:58:28;;;;;;;24.48;16.48;;;;;;;15.42;100.00;-25501.00;5091967;28;20419;-78
2022/06/26 02:00:53;;;;;;;28.92;16.75;;;;;;;15.33;100.00;-25498.38;5091352;28;20028;-78
2022/06/26 02:03:22;;;;;;;26.55;16.70;;;;;;;15.25;100.00;-25496.34;5091272;28;20502;-78
2022/06/26 02:05:48;;;;;;;24.80;16.35;;;;;;;15.19;100.00;-25494.44;5090527;28;20032;-77
2022/06/26 02:08:13;;;;;;;28.00;16.75;;;;;;;15.15;100.00;-25493.44;5091577;28;20024;-78
2022/06/26 02:13:41;;;;;;;26.60;16.08;;;;;;;14.99;100.00;-25488.91;5091872;28;20047;-78
2022/06/26 02:16:14;;;;;;;26.42;15.95;;;;;;;14.94;100.00;-25487.47;5091554;28;20078;-82
2022/06/26 02:18:42;;;;;;;23.17;15.43;;;;;;;14.90;100.00;-25486.44;5091050;28;20020;-79
2022/06/26 02:21:10;;;;;;;22.60;15.13;;;;;;;14.90;100.00;-25486.31;5071361;28;20469;-80
2022/06/26 02:23:38;;;;;;;25.17;14.63;;;;;;;14.84;100.00;-25484.69;5089769;28;20495;-77
2022/06/26 02:26:05;;;;;;;28.67;16.48;;;;;;;14.82;100.00;-25484.13;5090221;28;20075;-78
2022/06/26 02:28:31;;;;;;;25.90;15.95;;;;;;;14.85;100.00;-25484.84;5091217;28;20047;-77
2022/06/26 02:30:57;;;;;;;28.50;15.60;;;;;;;14.80;100.00;-25483.38;5093368;28;20385;-77
2022/06/26 02:33:28;;;;;;;25.13;16.02;;;;;;;14.74;100.00;-25481.78;5095436;28;20031;-79
2022/06/26 02:35:55;;;;;;;26.52;15.95;;;;;;;14.72;100.00;-25481.34;5095994;28;20081;-78
2022/06/26 02:38:22;;;;;;;30.13;16.92;;;;;;;14.66;100.00;-25479.44;5095950;28;20373;-78
2022/06/26 02:40:48;;;;;;;31.52;17.00;;;;;;;14.64;100.00;-25479.00;5095114;28;20024;-77
2022/06/26 02:43:18;;;;;;;28.20;16.48;;;;;;;14.62;100.00;-25478.44;5095284;28;20047;-78
2022/06/26 02:45:44;;;;;;;26.85;15.38;;;;;;;14.63;100.00;-25478.72;5095323;28;20118;-78
2022/06/26 02:48:10;;;;;;;25.55;15.55;;;;;;;14.63;100.00;-25478.56;5078310;28;20055;-77
2022/06/26 02:50:36;;;;;;;28.33;16.02;;;;;;;14.58;100.00;-25477.13;5096206;28;20028;-78
2022/06/26 02:53:04;;;;;;;25.88;15.20;;;;;;;14.54;100.00;-25476.25;5094881;28;20353;-78
2022/06/26 02:55:29;;;;;;;27.92;14.93;;;;;;;14.54;100.00;-25476.25;5095053;28;20039;-78
2022/06/26 02:57:55;;;;;;;26.23;14.70;;;;;;;14.56;100.00;-25476.69;5094996;28;20024;-78
2022/06/26 03:00:20;;;;;;;24.60;14.20;;;;;;;14.53;100.00;-25475.94;5095407;28;20024;-77
2022/06/26 03:02:48;;;;;;;24.67;14.45;;;;;;;14.52;100.00;-25475.50;5094777;28;20416;-79
2022/06/26 03:05:13;;;;;;;24.50;14.27;;;;;;;14.46;100.00;-25473.75;5095267;28;20461;-78
2022/06/26 03:07:39;;;;;;;31.13;14.65;;;;;;;14.47;100.00;-25474.06;5094501;28;20048;-77
2022/06/26 03:10:05;;;;;;;26.10;13.32;;;;;;;14.48;100.00;-25474.50;5095495;28;20020;-81
2022/06/26 03:12:31;;;;;;;26.85;14.05;;;;;;;14.41;100.00;-25472.47;5094980;28;20054;-80
2022/06/26 03:14:57;;;;;;;25.90;13.95;;;;;;;14.38;100.00;-25471.44;5096220;28;20084;-78
2022/06/26 03:17:22;;;;;;;30.15;14.18;;;;;;;14.36;100.00;-25471.00;5095391;28;20032;-79
2022/06/26 03:19:49;;;;;;;24.27;13.65;;;;;;;14.37;100.00;-25471.28;5095530;28;20032;-79
2022/06/26 03:22:14;;;;;;;25.13;13.55;;;;;;;14.39;100.00;-25471.72;5078066;28;20484;-80
2022/06/26 03:24:41;;;;;;;25.63;14.60;;;;;;;14.36;100.00;-25471.16;5095753;28;20016;-81
2022/06/26 03:27:06;;;;;;;25.90;13.30;;;;;;;14.33;100.00;-25470.28;5094916;28;20044;-82
2022/06/26 03:29:32;;;;;;;27.75;13.55;;;;;;;14.35;100.00;-25470.72;5094093;28;20035;-79
2022/06/26 03:31:57;;;;;;;26.17;13.93;;;;;;;14.33;100.00;-25470.28;5094055;28;20114;-80
2022/06/26 03:34:24;;;;;;;25.10;12.60;;;;;;;14.35;100.00;-25470.72;5094319;28;20111;-78
2022/06/26 03:36:51;;;;;;;28.70;13.15;;;;;;;14.36;100.00;-25471.16;5076333;28;20611;-81
2022/06/26 03:39:17;;;;;;;24.10;12.73;;;;;;;14.38;100.00;-25471.59;5093436;28;20024;-79
2022/06/26 03:41:57;;;;;;;28.10;13.27;;;;;;;14.38;100.00;-25471.59;5093443;28;20368;-81
2022/06/26 03:44:24;;;;;;;24.45;12.82;;;;;;;14.40;100.00;-25472.03;5093194;28;20028;-78
2022/06/26 03:46:50;;;;;;;25.13;12.77;;;;;;;14.41;100.00;-25472.31;5093488;28;20073;-78
2022/06/26 03:49:15;;;;;;;25.33;12.90;;;;;;;14.43;100.00;-25472.91;5094022;28;20024;-81
2022/06/26 03:51:41;;;;;;;25.33;12.90;;;;;;;14.53;100.00;-25475.94;5110135;28;20043;-80
2022/06/26 03:54:21;;;;;;;24.30;13.35;;;;;;;14.85;100.00;-25484.84;5093568;28;20020;-81
2022/06/26 03:56:47;;;;;;;25.50;12.95;;;;;;;15.02;100.00;-25489.66;5093361;28;20086;-79
2022/06/26 03:59:13;;;;;;;22.70;11.95;;;;;;;14.97;100.00;-25488.34;5093120;28;20027;-79
2022/06/26 04:01:39;;;;;;;22.80;12.13;;;;;;;15.01;100.00;-25489.50;5093432;28;20028;-81
2022/06/26 04:04:06;;;;;;;21.58;11.70;;;;;;;15.55;100.00;-25504.78;5092955;28;20028;-81
2022/06/26 04:06:32;;;;;;;21.58;11.50;;;;;;;16.55;100.00;-25532.81;5093207;28;20024;-81
2022/06/26 04:08:57;;;;;;;19.23;11.20;;;;;;;17.19;100.00;-25551.09;5093413;28;20427;-81
2022/06/26 04:11:22;;;;;;;19.85;10.27;;;;;;;17.92;100.00;-25571.53;5092755;28;20036;-81
2022/06/26 04:13:49;;;;;;;17.17;9.80;;;;;;;18.41;100.00;-25585.28;5094095;28;20035;-81
2022/06/26 04:16:19;;;;;;;16.75;9.00;;;;;;;18.49;100.00;-25587.59;5093604;28;20028;-81
2022/06/26 04:18:44;;;;;;;15.55;9.10;;;;;;;17.60;100.00;-25562.56;5091093;28;20031;-76
2022/06/26 04:21:09;;;;;;;15.40;8.95;;;;;;;18.48;100.00;-25587.31;5090549;28;20032;-77
2022/06/26 04:23:35;;;;;;;15.95;8.65;;;;;;;19.36;100.00;-25612.16;5091825;28;20134;-78
2022/06/26 04:28:37;;;;;;;13.40;8.35;;;;;;;20.50;100.00;-25643.91;5120385;27;20181;-79
2022/06/26 04:31:02;;;;;;;13.27;7.90;;;;;;;21.45;100.00;-14363.84;5112617;28;20065;-75
2022/06/26 04:33:31;;;;;;;14.90;7.70;;;;;;;21.83;100.00;11373.78;5104990;28;20475;-76
2022/06/26 04:35:56;;;;;;;13.00;7.60;;;;;;;22.10;100.00;49824.50;5092205;28;20034;-76
2022/06/26 04:38:21;;;;;;;12.20;6.90;;;;;;;22.49;100.00;96245.44;5106864;28;20032;-77
2022/06/26 04:40:47;;;;;;;13.18;7.20;;;;;;;22.90;100.00;148475.19;5109906;28;20091;-76
2022/06/26 04:43:13;;;;;;;11.52;6.60;;;;;;;23.00;100.00;148499.63;5097668;28;20409;-77
2022/06/26 04:45:39;;;;;;;12.65;6.45;;;;;;;23.54;100.00;148635.72;5098340;28;20027;-77
2022/06/26 04:48:04;;;;;;;12.57;6.30;;;;;;;23.73;100.00;148683.22;5091633;28;20032;-77
2022/06/26 04:50:30;;;;;;;11.18;5.80;;;;;;;23.74;100.00;148684.47;5110943;28;20482;-76
2022/06/26 04:52:56;;;;;;;7.78;5.38;;;;;;;23.94;100.00;148735.91;5116513;28;20055;-77
2022/06/26 04:55:22;;;;;;;10.93;6.18;;;;;;;23.63;100.00;148657.50;5100432;28;20537;-76
2022/06/26 04:57:47;;;;;;;10.68;5.68;;;;;;;23.00;100.00;148499.63;5091438;28;20065;-77
2022/06/26 05:00:15;;;;;;;8.05;5.15;;;;;;;23.14;100.00;148534.31;5091510;28;20027;-77
2022/06/26 05:02:41;;;;;;;11.05;5.75;;;;;;;23.11;100.00;148529.16;5096413;28;20022;-78
2022/06/26 05:05:07;;;;;;;12.75;5.75;;;;;;;22.53;100.00;148384.13;5103817;28;20482;-77
2022/06/26 05:07:33;;;;;;;11.93;5.78;;;;;;;22.91;100.00;148479.06;5092977;28;20368;-78
2022/06/26 05:09:59;;;;;;;9.05;5.65;;;;;;;22.71;100.00;148427.75;5097303;28;20329;-77
2022/06/26 05:12:25;;;;;;;11.90;5.55;;;;;;;22.92;100.00;148481.63;5111673;28;20045;-77
2022/06/26 05:14:53;;;;;;;8.23;4.55;;;;;;;24.10;100.00;148774.41;5103785;28;20051;-77
2022/06/26 05:17:19;;;;;;;8.50;4.88;;;;;;;23.78;100.00;148694.75;5098307;28;20023;-78
2022/06/26 05:19:44;;;;;;;7.57;4.78;;;;;;;21.85;100.00;148214.75;5097648;28;20024;-82
2022/06/26 05:22:10;;;;;;;10.70;5.57;;;;;;;20.80;100.00;147951.91;5125368;28;20059;-82
2022/06/26 05:24:44;;;;;;;8.13;5.13;;;;;;;20.45;100.00;147864.75;5092293;28;20027;-79
2022/06/26 05:27:10;;;;;;;8.75;5.03;;;;;;;20.25;100.00;147816.06;5118007;28;20031;-81
2022/06/26 05:29:35;;;;;;;10.27;4.63;;;;;;;20.01;100.00;147755.88;5112173;28;20391;-78
2022/06/26 05:32:01;;;;;;;10.00;5.18;;;;;;;19.09;100.00;147525.34;5111738;28;20472;-79
2022/06/26 05:34:27;;;;;;;9.95;5.18;;;;;;;18.97;100.00;147497.22;5102603;28;20111;-78
2022/06/26 05:36:52;;;;;;;9.48;5.28;;;;;;;18.45;100.00;147367.91;5103276;28;20463;-78
2022/06/26 05:39:18;;;;;;;9.10;5.53;;;;;;;18.74;100.00;125056.22;5101959;28;20012;-79
2022/06/26 05:41:43;;;;;;;8.65;4.78;;;;;;;18.57;100.00;75197.00;5095217;28;20054;-79
2022/06/26 05:44:09;;;;;;;10.70;4.97;;;;;;;18.30;100.00;56222.63;5077399;28;20020;-77
2022/06/26 05:46:34;;;;;;;9.77;4.80;;;;;;;18.33;100.00;47125.31;5100598;28;20028;-78
2022/06/26 05:49:01;;;;;;;8.68;5.25;;;;;;;18.26;100.00;41400.91;5095573;28;20456;-77
2022/06/26 05:51:26;;;;;;;11.13;4.97;;;;;;;18.35;100.00;31335.97;5097253;28;20460;-78
2022/06/26 05:53:55;;;;;;;10.68;4.43;;;;;;;18.37;100.00;27315.22;5080549;28;20043;-77
2022/06/26 05:56:20;;;;;;;9.23;4.88;;;;;;;18.47;100.00;22633.34;5097685;28;20376;-78
2022/06/26 05:58:47;;;;;;;8.70;4.80;;;;;;;18.45;100.00;19287.69;5106550;28;20020;-78
2022/06/26 06:01:13;;;;;;;9.00;4.40;;;;;;;18.37;100.00;16945.13;5090240;28;20031;-78
2022/06/26 06:03:43;;;;;;;9.85;4.63;;;;;;;18.51;100.00;12942.69;5080190;28;20456;-82
2022/06/26 06:06:11;;;;;;;7.60;4.55;;;;;;;18.34;100.00;10601.69;5074625;28;20500;-78
2022/06/26 06:08:37;;;;;;;8.95;4.38;;;;;;;18.41;100.00;8936.31;5069965;28;20036;-78
2022/06/26 06:11:04;;;;;;;9.02;4.65;;;;;;;18.35;100.00;7601.41;5080525;28;20042;-77
2022/06/26 06:13:42;;;;;;;6.78;3.95;;;;;;;18.36;100.00;3604.56;5097823;28;20517;-79
2022/06/26 06:16:08;;;;;;;7.38;3.95;;;;;;;18.55;100.00;944.63;5080785;28;20034;-82
2022/06/26 06:18:33;;;;;;;9.30;4.72;;;;;;;18.32;100.00;608.75;5097648;28;20028;-84
2022/06/26 06:20:59;;;;;;;9.00;5.00;;;;;;;18.63;100.00;-1383.50;5097714;28;20122;-84
2022/06/26 06:23:27;;;;;;;8.80;4.40;;;;;;;18.94;100.00;-2711.41;5082072;28;20024;-81
2022/06/26 06:25:53;;;;;;;8.32;4.05;;;;;;;18.82;100.00;1281.28;5077309;28;20030;-79
2022/06/26 06:28:18;;;;;;;7.60;3.95;;;;;;;18.52;100.00;1277.00;5077587;28;20130;-85
2022/06/26 06:30:44;;;;;;;8.10;4.07;;;;;;;18.57;100.00;279.28;5078745;28;20059;-84
2022/06/26 06:33:10;;;;;;;7.30;3.97;;;;;;;18.33;100.00;941.63;5089937;28;20024;-84
2022/06/26 06:35:36;;;;;;;11.52;4.05;;;;;;;18.28;100.00;608.28;5098203;28;20031;-84
2022/06/26 06:38:03;;;;;;;6.35;3.83;;;;;;;18.48;100.00;-719.78;5086188;28;20023;-85
2022/06/26 06:40:29;;;;;;;7.43;3.90;;;;;;;18.40;100.00;942.59;5065359;28;20036;-83
2022/06/26 06:42:56;;;;;;;6.22;3.88;;;;;;;18.68;100.00;613.47;5088415;28;20039;-85
2022/06/26 06:45:23;;;;;;;6.57;3.80;;;;;;;19.05;100.00;2617.09;5076879;28;20117;-85
2022/06/26 06:47:48;;;;;;;6.68;3.67;;;;;;;19.15;100.00;9289.56;5077157;28;20028;-79
2022/06/26 06:50:15;;;;;;;6.93;3.60;;;;;;;19.30;100.00;17315.94;5076115;28;20392;-84
2022/06/26 06:52:41;;;;;;;6.03;3.60;;;;;;;19.66;100.00;28394.09;5087839;28;20063;-79
2022/06/26 06:55:07;;;;;;;7.10;4.10;;;;;;;19.40;100.00;36105.38;5085441;28;20032;-77
2022/06/26 06:57:33;;;;;;;6.18;3.30;;;;;;;19.81;100.00;36133.91;5076019;28;20131;-78
2022/06/26 06:59:58;;;;;;;7.53;3.50;;;;;;;19.20;100.00;40127.84;5075326;28;20051;-78
2022/06/26 07:02:24;;;;;;;6.70;3.40;;;;;;;19.26;100.00;37441.13;5087370;28;20027;-81
2022/06/26 07:04:49;;;;;;;7.40;3.75;;;;;;;19.41;100.00;27373.03;5079489;28;20039;-78
2022/06/26 07:07:15;;;;;;;7.07;3.28;;;;;;;19.09;100.00;29367.72;5075591;28;20077;-79
2022/06/26 07:09:42;;;;;;;7.05;3.53;;;;;;;19.13;100.00;32055.44;5075228;28;20024;-79
2022/06/26 07:12:07;;;;;;;5.65;3.30;;;;;;;19.67;100.00;32425.78;5056232;28;20036;-79
2022/06/26 07:14:34;;;;;;;5.65;3.25;;;;;;;19.88;100.00;40853.06;5078597;28;20028;-79
2022/06/26 07:16:59;;;;;;;6.03;3.17;;;;;;;20.50;100.00;46975.88;5092082;28;20036;-77
2022/06/26 07:19:25;;;;;;;6.25;3.08;;;;;;;21.39;100.00;101546.34;5087821;28;20138;-82
2022/06/26 07:21:50;;;;;;;5.72;2.90;;;;;;;21.16;100.00;148041.63;5073790;28;20361;-76
2022/06/26 07:24:17;;;;;;;8.85;3.08;;;;;;;20.31;100.00;147828.91;5074163;28;20484;-78
2022/06/26 07:26:43;;;;;;;8.32;2.88;;;;;;;20.03;100.00;147759.72;5041385;28;20653;-79
2022/06/26 07:29:09;;;;;;;5.38;2.55;;;;;;;20.27;100.00;147821.22;5073155;28;20062;-74
2022/06/26 07:31:36;;;;;;;6.05;3.00;;;;;;;21.10;100.00;148027.53;5074907;28;20461;-78
2022/06/26 07:34:13;;;;;;;5.90;2.70;;;;;;;22.36;100.00;148341.78;5074077;28;20038;-76
2022/06/26 07:36:44;;;;;;;4.68;2.35;;;;;;;22.94;100.00;148486.75;5073618;28;20020;-77
2022/06/26 07:39:10;;;;;;;6.85;2.60;;;;;;;22.31;100.00;148328.97;5074933;28;20016;-81
2022/06/26 07:41:36;;;;;;;4.60;1.98;;;;;;;21.49;100.00;148123.75;5074180;28;20392;-79
2022/06/26 07:44:03;;;;;;;4.88;2.10;;;;;;;21.30;100.00;148076.22;5074892;28;20027;-79
2022/06/26 07:46:28;;;;;;;4.22;2.05;;;;;;;22.16;100.00;148291.72;5073251;28;20442;-85
2022/06/26 07:48:54;;;;;;;4.38;2.15;;;;;;;22.67;100.00;148418.78;5093376;28;20054;-82
2022/06/26 07:51:21;;;;;;;4.85;2.10;;;;;;;23.67;100.00;148669.06;5075748;28;20020;-79
2022/06/26 07:53:48;;;;;;;5.13;1.90;;;;;;;23.99;100.00;148748.75;5075163;28;20094;-83
2022/06/26 07:56:13;;;;;;;4.85;2.05;;;;;;;24.46;100.00;148865.63;5074976;28;20098;-87
2022/06/26 07:58:39;;;;;;;3.63;1.63;;;;;;;24.08;100.00;148769.28;5074893;28;20020;-85
2022/06/26 08:01:05;;;;;;;4.55;1.88;;;;;;;24.35;100.00;148837.38;5076061;28;20059;-85
2022/06/26 08:03:41;;;;;;;5.13;1.70;;;;;;;23.67;100.00;148667.81;5073653;28;20028;-82
2022/06/26 08:06:07;;;;;;;3.75;1.50;;;;;;;23.63;100.00;148658.81;5070490;28;20035;-87
2022/06/26 08:08:39;;;;;;;4.07;1.80;;;;;;;24.27;100.00;148816.78;5079809;28;20097;-79
2022/06/26 08:11:05;;;;;;;4.35;1.83;;;;;;;24.27;100.00;148818.09;5074666;28;20535;-82
2022/06/26 08:13:30;;;;;;;4.60;1.60;;;;;;;23.87;100.00;148717.94;5092720;28;20024;-87
2022/06/26 08:15:56;;;;;;;3.58;1.50;;;;;;;23.90;100.00;148725.63;5074624;28;20101;-85
2022/06/26 08:18:21;;;;;;;4.43;1.70;;;;;;;24.30;100.00;148824.50;5093183;28;20499;-83
2022/06/26 08:20:46;;;;;;;4.75;1.42;;;;;;;24.68;100.00;148920.91;5075065;28;20113;-84
2022/06/26 08:23:12;;;;;;;4.30;1.30;;;;;;;24.18;100.00;148794.97;5073190;28;20028;-83
2022/06/26 08:25:38;;;;;;;4.43;1.40;;;;;;;23.62;100.00;148656.25;5081833;28;20027;-81
2022/06/26 08:28:03;;;;;;;5.68;1.38;;;;;;;24.26;100.00;148815.53;5109382;28;20089;-86
2022/06/26 08:30:29;;;;;;;3.22;1.20;;;;;;;23.75;100.00;148688.34;5073724;28;20503;-85
2022/06/26 08:32:58;;;;;;;4.10;1.60;;;;;;;23.86;100.00;148715.34;5074943;28;20024;-82
2022/06/26 08:35:25;;;;;;;3.63;1.17;;;;;;;23.49;100.00;148622.84;5074700;28;20045;-87
2022/06/26 08:37:50;;;;;;;3.03;1.23;;;;;;;23.56;100.00;148640.84;5075085;28;20380;-87
2022/06/26 08:40:16;;;;;;;3.05;1.30;;;;;;;22.76;100.00;148440.56;5074384;28;20028;-84
2022/06/26 08:42:44;;;;;;;3.35;1.27;;;;;;;22.23;100.00;148309.69;5076105;28;20024;-83
2022/06/26 08:45:10;;;;;;;2.67;1.10;;;;;;;22.30;100.00;148325.06;5075268;28;20491;-80
2022/06/26 08:47:39;;;;;;;3.80;1.50;;;;;;;22.16;100.00;148290.44;5075871;28;20025;-84
2022/06/26 08:50:06;;;;;;;3.27;1.50;;;;;;;21.87;100.00;148218.59;5076530;28;20024;-82
2022/06/26 08:52:32;;;;;;;3.13;1.27;;;;;;;21.75;100.00;148187.81;5074690;28;20672;-84
2022/06/26 08:54:59;;;;;;;3.15;1.13;;;;;;;22.26;100.00;148314.78;5074914;28;20066;-85
2022/06/26 08:57:25;;;;;;;4.57;1.38;;;;;;;22.47;100.00;148368.72;5075059;28;20452;-84
2022/06/26 08:59:51;;;;;;;3.92;1.40;;;;;;;22.23;100.00;148309.69;5074432;28;20070;-85
2022/06/26 09:02:16;;;;;;;4.15;1.63;;;;;;;22.86;100.00;148466.22;5074633;28;20028;-85
2022/06/26 09:04:46;;;;;;;4.57;1.55;;;;;;;23.94;100.00;148735.91;5075078;28;20032;-85
2022/06/26 09:07:11;;;;;;;4.05;1.52;;;;;;;24.36;100.00;148841.22;5074985;28;20036;-86
2022/06/26 09:09:41;;;;;;;5.05;1.67;;;;;;;24.53;100.00;148882.31;5074673;28;20552;-86
2022/06/26 09:12:07;;;;;;;3.80;1.60;;;;;;;24.20;100.00;148800.09;5074945;28;20058;-82
2022/06/26 09:14:37;;;;;;;3.90;1.55;;;;;;;23.85;100.00;148712.81;5077306;28;20028;-86
2022/06/26 09:17:05;;;;;;;4.60;2.10;;;;;;;24.17;100.00;148793.66;5078762;28;20112;-87
2022/06/26 09:19:36;;;;;;;4.72;1.60;;;;;;;24.00;100.00;148750.03;5060860;28;20064;-85
2022/06/26 09:22:10;;;;;;;4.50;1.90;;;;;;;23.75;100.00;148688.34;5085204;28;20035;-79
2022/06/26 09:24:37;;;;;;;4.93;1.80;;;;;;;22.20;100.00;148300.66;5077249;28;20027;-81
2022/06/26 09:27:10;;;;;;;4.25;1.80;;;;;;;22.24;100.00;148312.22;5084230;28;20503;-82
2022/06/26 09:29:38;;;;;;;5.75;2.10;;;;;;;21.91;100.00;148227.56;5094845;28;20127;-83
2022/06/26 09:32:13;;;;;;;3.55;1.80;;;;;;;22.29;100.00;148322.50;5077329;28;20025;-79
2022/06/26 09:34:43;;;;;;;3.60;1.77;;;;;;;22.41;100.00;148353.34;5076449;28;20024;-79
2022/06/26 09:37:10;;;;;;;5.38;1.80;;;;;;;22.65;100.00;148412.34;5079260;28;20027;-79
2022/06/26 09:39:36;;;;;;;4.88;1.77;;;;;;;22.83;100.00;148458.53;5077212;28;20039;-78
2022/06/26 09:42:19;;;;;;;5.95;1.77;;;;;;;22.78;100.00;148445.72;5087662;28;20028;-80
2022/06/26 09:44:46;;;;;;;4.53;1.60;;;;;;;22.90;100.00;148475.19;5074830;28;20478;-82
2022/06/26 09:47:22;;;;;;;5.15;1.83;;;;;;;22.77;100.00;148444.41;5076696;28;20078;-82
2022/06/26 09:49:49;;;;;;;6.07;2.05;;;;;;;22.33;100.00;148334.09;5057252;28;20036;-81
2022/06/26 09:52:15;;;;;;;4.28;1.83;;;;;;;22.75;100.00;148438.00;5082250;28;20028;-81
2022/06/26 09:54:45;;;;;;;4.25;2.03;;;;;;;21.78;100.00;148195.50;5077454;28;20032;-80
2022/06/26 09:57:11;;;;;;;3.80;1.90;;;;;;;22.43;100.00;148358.44;5092858;28;20038;-78
2022/06/26 09:59:38;;;;;;;5.68;2.30;;;;;;;22.79;100.00;148446.97;5080162;28;20123;-80
2022/06/26 10:07:35;;;;;;;5.07;1.90;;;;;;;22.99;100.00;148497.03;5098516;28;20130;-78
2022/06/26 10:10:02;;;;;;;4.55;1.85;;;;;;;22.58;100.00;148396.94;5110002;28;20028;-79
2022/06/26 10:12:27;;;;;;;5.00;2.17;;;;;;;22.36;100.00;148340.53;5076632;28;20722;-79
2022/06/26 10:14:55;;;;;;;4.15;1.95;;;;;;;22.48;100.00;148371.31;5110425;28;20032;-77
2022/06/26 10:17:37;;;;;;;6.88;2.10;;;;;;;22.44;100.00;148361.03;5075971;28;20567;-76
2022/06/26 10:20:08;;;;;;;4.72;2.13;;;;;;;22.34;100.00;148335.34;5056217;28;20040;-79
2022/06/26 10:22:43;;;;;;;6.55;2.42;;;;;;;22.25;100.00;148313.53;5093374;28;20016;-77
2022/06/26 10:25:30;;;;;;;4.95;2.20;;;;;;;21.98;100.00;148246.81;5075796;28;20028;-77
2022/06/26 10:27:57;;;;;;;4.70;2.30;;;;;;;22.43;100.00;148358.44;5075908;28;20048;-78
2022/06/26 10:30:25;;;;;;;5.90;2.20;;;;;;;22.39;100.00;148348.22;5075512;28;20036;-78
2022/06/26 10:33:13;;;;;;;6.20;2.45;;;;;;;22.47;100.00;148368.72;5075220;28;20020;-78
2022/06/26 10:35:47;;;;;;;5.78;2.15;;;;;;;22.58;100.00;148395.66;5107179;28;20077;-79
2022/06/26 10:38:27;;;;;;;6.30;2.90;;;;;;;22.25;100.00;148313.53;5094855;28;20032;-80
2022/06/26 10:44:02;;;;;;;6.15;2.50;;;;;;;22.71;100.00;148427.75;5093300;28;20507;-78
2022/06/26 10:46:58;;;;;;;4.97;2.28;;;;;;;22.83;100.00;148458.53;5075579;28;20082;-78
2022/06/26 10:49:24;;;;;;;4.57;2.47;;;;;;;22.29;100.00;148323.75;5071392;28;20032;-75
2022/06/26 10:51:50;;;;;;;3.80;2.22;;;;;;;22.41;100.00;148354.59;5075337;28;20514;-77
2022/06/26 10:54:29;;;;;;;5.65;2.30;;;;;;;22.34;100.00;148335.34;5074564;28;20042;-77
2022/06/26 10:57:09;;;;;;;8.05;2.85;;;;;;;22.57;100.00;148393.09;5074600;28;20020;-78
2022/06/26 10:59:40;;;;;;;5.60;2.80;;;;;;;22.48;100.00;148371.31;5074048;28;20463;-83
2022/06/26 11:02:06;;;;;;;6.38;2.70;;;;;;;22.63;100.00;148407.22;5093317;28;20024;-81
2022/06/26 11:04:50;;;;;;;8.23;2.72;;;;;;;22.62;100.00;148404.63;5074156;28;20020;-79
2022/06/26 11:07:16;;;;;;;6.20;3.00;;;;;;;22.56;100.00;148390.56;5074542;28;20020;-81
2022/06/26 11:09:43;;;;;;;6.40;3.20;;;;;;;22.28;100.00;148319.91;5075345;28;20049;-83
2022/06/26 11:12:08;;;;;;;7.30;3.70;;;;;;;22.30;100.00;148325.06;5074774;28;20020;-84
2022/06/26 11:14:34;;;;;;;7.40;5.05;;;;;;;22.00;100.00;148251.97;5070374;28;20106;-82
2022/06/26 11:17:01;;;;;;;8.77;5.43;;;;;;;22.18;100.00;148295.56;5074520;28;20021;-80
2022/06/26 11:19:29;;;;;;;6.40;4.70;;;;;;;22.50;100.00;148375.16;5074777;28;20051;-83
2022/06/26 11:22:12;;;;;;;5.63;3.42;;;;;;;22.33;100.00;148334.09;5074496;28;20024;-82
2022/06/26 11:24:50;;;;;;;7.07;5.43;;;;;;;21.88;100.00;148222.44;5071953;28;20506;-84
2022/06/26 11:27:16;;;;;;;7.13;5.00;;;;;;;21.97;100.00;148242.94;5066638;28;20124;-84